createdAt,value
2023-03-31T00:01:08.929Z,99607.44
2023-03-31T00:03:38.926Z,99601.88
2023-03-31T00:06:11.414Z,99606.09
2023-03-31T00:08:40.414Z,99602.28
2023-03-31T00:11:08.071Z,99595.50
2023-03-31T00:13:35.947Z,99602.34
2023-03-31T00:16:06.339Z,99607.56
2023-03-31T00:18:34.495Z,99605.75
2023-03-31T00:21:14.634Z,99593.63
2023-03-31T00:23:42.316Z,99597.22
2023-03-31T00:26:09.208Z,99591.81
2023-03-31T00:28:36.266Z,99595.66
2023-03-31T00:31:04.149Z,99592.66
2023-03-31T00:33:31.427Z,99582.91
2023-03-31T00:36:02.225Z,99580.72
2023-03-31T00:38:33.565Z,99580.13
2023-03-31T00:41:01.425Z,99575.94
2023-03-31T00:43:37.666Z,99571.81
2023-03-31T00:46:22.488Z,99565.22
2023-03-31T00:48:57.863Z,99569.41
2023-03-31T00:51:28.830Z,99566.19
2023-03-31T00:54:02.198Z,99574.38
2023-03-31T00:56:30.255Z,99579.03
2023-03-31T00:59:01.104Z,99573.41
2023-03-31T01:01:27.957Z,99569.03
2023-03-31T01:03:55.008Z,99561.84
2023-03-31T01:06:23.894Z,99550.69
2023-03-31T01:08:52.313Z,99546.28
2023-03-31T01:11:24.785Z,99553.06
2023-03-31T01:13:56.252Z,99550.47
2023-03-31T01:16:23.911Z,99551.47
2023-03-31T01:18:51.104Z,99556.66
2023-03-31T01:21:42.732Z,99557.88
2023-03-31T01:24:47.237Z,99546.72
2023-03-31T01:27:35.755Z,99545.13
2023-03-31T01:30:26.612Z,99545.13
2023-03-31T01:33:24.412Z,99542.75
2023-03-31T01:36:06.551Z,99539.19
2023-03-31T01:38:46.777Z,99534.38
2023-03-31T01:41:13.561Z,99537.97
2023-03-31T01:43:48.384Z,99529.78
2023-03-31T01:46:38.206Z,99528.81
2023-03-31T01:49:35.445Z,99523.84
2023-03-31T01:52:28.545Z,99531.19
2023-03-31T01:55:10.079Z,99533.00
2023-03-31T01:57:48.625Z,99535.16
2023-03-31T02:00:19.797Z,99524.41
2023-03-31T02:03:01.650Z,99520.41
2023-03-31T02:05:36.636Z,99519.81
2023-03-31T02:08:10.721Z,99523.00
2023-03-31T02:10:39.206Z,99526.19
2023-03-31T02:13:08.285Z,99530.56
2023-03-31T02:15:39.354Z,99527.59
2023-03-31T02:18:11.598Z,99537.75
2023-03-31T02:20:46.338Z,99529.59
2023-03-31T02:23:18.857Z,99525.00
2023-03-31T02:25:57.696Z,99526.59
2023-03-31T02:28:28.670Z,99527.81
2023-03-31T02:31:33.750Z,99523.03
2023-03-31T02:34:03.868Z,99517.69
2023-03-31T02:36:31.768Z,99510.91
2023-03-31T02:39:05.606Z,99513.31
2023-03-31T02:41:33.471Z,99517.69
2023-03-31T02:44:00.610Z,99510.13
2023-03-31T02:47:18.344Z,99507.75
2023-03-31T02:49:55.635Z,99498.97
2023-03-31T02:52:41.071Z,99501.59
2023-03-31T02:55:26.146Z,99500.97
2023-03-31T02:58:12.648Z,99503.75
2023-03-31T03:01:17.554Z,99497.00
2023-03-31T03:04:09.558Z,99501.97
2023-03-31T03:06:53.892Z,99497.56
2023-03-31T03:09:47.678Z,99495.41
2023-03-31T03:12:25.338Z,99497.00
2023-03-31T03:15:08.278Z,99493.41
2023-03-31T03:17:43.062Z,99493.81
2023-03-31T03:20:11.348Z,99500.78
2023-03-31T03:22:39.122Z,99497.56
2023-03-31T03:25:07.606Z,99490.22
2023-03-31T03:27:36.040Z,99487.81
2023-03-31T03:30:08.235Z,99469.31
2023-03-31T03:32:35.961Z,99468.31
2023-03-31T03:35:03.780Z,99477.88
2023-03-31T03:37:31.437Z,99477.06
2023-03-31T03:39:58.206Z,99481.03
2023-03-31T03:42:25.459Z,99480.44
2023-03-31T03:44:52.291Z,99474.66
2023-03-31T03:47:19.179Z,99477.25
2023-03-31T03:49:46.104Z,99471.91
2023-03-31T03:52:12.988Z,99475.03
2023-03-31T03:54:39.739Z,99478.44
2023-03-31T03:57:09.661Z,99466.28
2023-03-31T03:59:36.622Z,99468.28
2023-03-31T04:02:03.527Z,99459.13
2023-03-31T04:04:30.372Z,99455.91
2023-03-31T04:06:57.359Z,99452.75
2023-03-31T04:09:24.280Z,99448.94
2023-03-31T04:11:51.060Z,99447.97
2023-03-31T04:14:17.893Z,99443.19
2023-03-31T04:16:46.866Z,99438.81
2023-03-31T04:19:17.753Z,99445.38
2023-03-31T04:21:45.603Z,99440.00
2023-03-31T04:24:15.973Z,99445.56
2023-03-31T04:26:43.470Z,99452.75
2023-03-31T04:29:14.721Z,99444.59
2023-03-31T04:31:43.063Z,99438.41
2023-03-31T04:34:14.451Z,99441.19
2023-03-31T04:36:47.142Z,99439.97
2023-03-31T04:39:16.831Z,99438.00
2023-03-31T04:41:43.807Z,99448.75
2023-03-31T04:44:12.792Z,99439.97
2023-03-31T04:46:39.523Z,99436.41
2023-03-31T04:49:06.392Z,99429.06
2023-03-31T04:51:33.106Z,99429.47
2023-03-31T04:53:59.891Z,99428.09
2023-03-31T04:56:27.371Z,99426.28
2023-03-31T04:58:54.395Z,99422.50
2023-03-31T05:01:21.424Z,99415.00
2023-03-31T05:03:48.823Z,99420.97
2023-03-31T05:06:16.711Z,99420.34
2023-03-31T05:08:44.317Z,99421.53
2023-03-31T05:11:11.465Z,99411.97
2023-03-31T05:13:38.450Z,99401.81
2023-03-31T05:16:14.944Z,99401.84
2023-03-31T05:18:42.730Z,99391.91
2023-03-31T05:21:20.977Z,99388.31
2023-03-31T05:23:48.514Z,99396.88
2023-03-31T05:26:16.468Z,99388.50
2023-03-31T05:28:44.013Z,99384.59
2023-03-31T05:31:15.976Z,99385.91
2023-03-31T05:33:42.817Z,99378.25
2023-03-31T05:36:16.281Z,99382.00
2023-03-31T05:38:43.730Z,99365.59
2023-03-31T05:41:11.275Z,99371.13
2023-03-31T05:43:39.776Z,99369.53
2023-03-31T05:46:07.469Z,99367.19
2023-03-31T05:48:34.986Z,99376.59
2023-03-31T05:51:02.333Z,99369.44
2023-03-31T05:53:29.494Z,99365.34
2023-03-31T05:56:05.682Z,99363.78
2023-03-31T05:58:35.525Z,99364.41
2023-03-31T06:01:08.099Z,99370.75
2023-03-31T06:03:37.748Z,99356.63
2023-03-31T06:06:05.639Z,99359.94
2023-03-31T06:08:35.914Z,99351.28
2023-03-31T06:11:07.015Z,99348.09
2023-03-31T06:13:37.784Z,99358.78
2023-03-31T06:16:07.718Z,99343.56
2023-03-31T06:18:36.633Z,99341.44
2023-03-31T06:21:04.674Z,99347.19
2023-03-31T06:23:32.190Z,99343.28
2023-03-31T06:26:04.945Z,99339.84
2023-03-31T06:28:34.714Z,99337.94
2023-03-31T06:31:03.879Z,99335.78
2023-03-31T06:33:31.300Z,99339.50
2023-03-31T06:35:59.674Z,99336.56
2023-03-31T06:38:26.616Z,99337.13
2023-03-31T06:40:53.941Z,99335.38
2023-03-31T06:43:21.014Z,99332.09
2023-03-31T06:45:49.516Z,99323.16
2023-03-31T06:48:19.284Z,99316.53
2023-03-31T06:50:46.491Z,99325.63
2023-03-31T06:53:13.601Z,99326.69
2023-03-31T06:55:40.713Z,99322.03
2023-03-31T06:58:07.530Z,99307.09
2023-03-31T07:00:34.754Z,99312.56
2023-03-31T07:03:02.061Z,99310.34
2023-03-31T07:05:29.971Z,99302.47
2023-03-31T07:07:58.523Z,99293.34
2023-03-31T07:10:27.408Z,99297.44
2023-03-31T07:12:54.502Z,99288.97
2023-03-31T07:15:21.723Z,99283.09
2023-03-31T07:17:51.171Z,99288.13
2023-03-31T07:20:19.032Z,99283.81
2023-03-31T07:22:47.701Z,99286.09
2023-03-31T07:25:16.936Z,99294.44
2023-03-31T07:27:43.738Z,99287.91
2023-03-31T07:30:17.167Z,99277.50
2023-03-31T07:32:46.617Z,99270.47
2023-03-31T07:35:13.396Z,99275.97
2023-03-31T07:37:42.382Z,99264.66
2023-03-31T07:40:11.021Z,99261.22
2023-03-31T07:42:38.152Z,99260.69
2023-03-31T07:45:08.376Z,99261.72
2023-03-31T07:47:35.650Z,99255.19
2023-03-31T07:50:02.695Z,99255.22
2023-03-31T07:52:31.499Z,99252.06
2023-03-31T07:54:58.399Z,99250.63
2023-03-31T07:57:25.296Z,99240.03
2023-03-31T07:59:52.243Z,99237.59
2023-03-31T08:02:19.407Z,99235.16
2023-03-31T08:04:47.104Z,99237.19
2023-03-31T08:07:15.303Z,99230.94
2023-03-31T08:09:45.006Z,99228.09
2023-03-31T08:12:13.853Z,99229.97
2023-03-31T08:14:41.691Z,99224.75
2023-03-31T08:17:09.808Z,99220.22
2023-03-31T08:19:39.679Z,99230.88
2023-03-31T08:22:06.461Z,99226.19
2023-03-31T08:24:33.254Z,99221.56
2023-03-31T08:27:00.127Z,99213.72
2023-03-31T08:29:26.908Z,99214.03
2023-03-31T08:31:55.397Z,99218.63
2023-03-31T08:34:22.210Z,99207.16
2023-03-31T08:36:48.980Z,99211.41
2023-03-31T08:39:15.842Z,99200.97
2023-03-31T08:42:01.571Z,99195.19
2023-03-31T08:44:56.346Z,99199.38
2023-03-31T08:47:29.293Z,99204.88
2023-03-31T08:49:59.561Z,99210.91
2023-03-31T08:53:11.923Z,99199.38
2023-03-31T08:55:59.394Z,99187.38
2023-03-31T08:58:45.603Z,99179.47
2023-03-31T09:01:55.587Z,99176.88
2023-03-31T09:05:02.276Z,99172.69
2023-03-31T09:07:45.328Z,99171.09
2023-03-31T09:10:39.900Z,99170.00
2023-03-31T09:13:12.575Z,99157.41
2023-03-31T09:15:48.093Z,99164.19
2023-03-31T09:18:27.848Z,99154.22
2023-03-31T09:21:16.901Z,99149.53
2023-03-31T09:24:05.934Z,99141.22
2023-03-31T09:26:53.396Z,99134.41
2023-03-31T09:29:34.543Z,99138.06
2023-03-31T09:32:23.158Z,99135.72
2023-03-31T09:35:12.809Z,99128.09
2023-03-31T09:37:39.769Z,99136.25
2023-03-31T09:40:08.113Z,99133.88
2023-03-31T09:42:36.591Z,99131.78
2023-03-31T09:45:04.479Z,99129.69
2023-03-31T09:47:40.456Z,99124.97
2023-03-31T09:50:09.677Z,99118.66
2023-03-31T09:52:57.034Z,99115.25
2023-03-31T09:55:43.202Z,99123.13
2023-03-31T09:58:15.189Z,99117.38
2023-03-31T10:00:44.362Z,99113.97
2023-03-31T10:03:14.355Z,99104.53
2023-03-31T10:05:54.478Z,99104.00
2023-03-31T10:08:28.093Z,99100.88
2023-03-31T10:11:13.349Z,99094.06
2023-03-31T10:13:53.103Z,99084.63
2023-03-31T10:16:45.767Z,99077.53
2023-03-31T10:19:14.264Z,99069.03
2023-03-31T10:21:45.446Z,99071.63
2023-03-31T10:24:12.322Z,99079.19
2023-03-31T10:26:40.177Z,99073.41
2023-03-31T10:29:30.879Z,99054.63
2023-03-31T10:32:05.553Z,99048.63
2023-03-31T10:34:33.200Z,99050.94
2023-03-31T10:37:00.226Z,99042.00
2023-03-31T10:39:32.897Z,99042.50
2023-03-31T10:42:01.070Z,99033.34
2023-03-31T10:44:39.490Z,99023.81
2023-03-31T10:47:15.537Z,99024.72
2023-03-31T10:49:45.056Z,99027.59
2023-03-31T10:52:29.797Z,99022.63
2023-03-31T10:55:01.659Z,99027.31
2023-03-31T10:57:53.793Z,99013.34
2023-03-31T11:00:32.913Z,99011.00
2023-03-31T11:03:31.952Z,99007.47
2023-03-31T11:06:20.777Z,99004.28
2023-03-31T11:09:04.956Z,99009.44
2023-03-31T11:12:04.069Z,98999.31
2023-03-31T11:15:04.995Z,98988.81
2023-03-31T11:17:53.106Z,98999.66
2023-03-31T11:20:30.974Z,98996.09
2023-03-31T11:23:35.496Z,98995.47
2023-03-31T11:26:11.848Z,98979.78
2023-03-31T11:29:04.017Z,98984.00
2023-03-31T11:31:33.762Z,98977.97
2023-03-31T11:34:25.867Z,98971.25
2023-03-31T11:37:02.550Z,98979.91
2023-03-31T11:40:00.105Z,98964.28
2023-03-31T11:42:39.259Z,98965.94
2023-03-31T11:45:18.968Z,98951.00
2023-03-31T11:47:49.656Z,98942.16
2023-03-31T11:50:28.792Z,98936.06
2023-03-31T11:53:06.351Z,98934.00
2023-03-31T11:55:34.481Z,98918.50
2023-03-31T11:58:08.526Z,98927.44
2023-03-31T12:00:44.395Z,98893.50
2023-03-31T12:03:30.042Z,98890.56
2023-03-31T12:06:02.971Z,98891.66
2023-03-31T12:08:35.622Z,98869.38
2023-03-31T12:11:12.703Z,98833.97
2023-03-31T12:13:51.349Z,98810.38
2023-03-31T12:16:27.133Z,98790.91
2023-03-31T12:18:56.972Z,98801.03
2023-03-31T12:21:25.276Z,98796.88
2023-03-31T12:23:52.101Z,98792.63
2023-03-31T12:26:40.859Z,98789.53
2023-03-31T12:29:40.501Z,98797.31
2023-03-31T12:32:20.844Z,98813.19
2023-03-31T12:34:58.573Z,98803.72
2023-03-31T12:37:38.970Z,98792.81
2023-03-31T12:40:20.801Z,98779.41
2023-03-31T12:43:16.797Z,98768.84
2023-03-31T12:46:00.640Z,98754.91
2023-03-31T12:48:55.406Z,98736.09
2023-03-31T12:51:40.706Z,98735.56
2023-03-31T12:54:22.833Z,98741.19
2023-03-31T12:57:01.971Z,98742.88
2023-03-31T12:59:36.307Z,98737.38
2023-03-31T13:02:15.501Z,98745.53
2023-03-31T13:04:43.318Z,98734.78
2023-03-31T13:07:29.339Z,98727.81
2023-03-31T13:10:03.655Z,98733.22
2023-03-31T13:12:33.170Z,98730.56
2023-03-31T13:15:04.071Z,98729.78
2023-03-31T13:17:35.852Z,98736.34
2023-03-31T13:20:30.835Z,98735.81
2023-03-31T13:23:23.218Z,98697.63
2023-03-31T13:25:54.861Z,98681.81
2023-03-31T13:28:31.605Z,98677.81
2023-03-31T13:31:15.948Z,98687.94
2023-03-31T13:33:58.947Z,98674.25
2023-03-31T13:37:01.461Z,98678.53
2023-03-31T13:39:51.559Z,98674.44
2023-03-31T13:42:51.784Z,98666.09
2023-03-31T13:45:37.536Z,98671.25
2023-03-31T13:48:27.497Z,98662.38
2023-03-31T13:51:06.746Z,98659.28
2023-03-31T13:53:42.065Z,98657.97
2023-03-31T13:56:16.789Z,98642.78
2023-03-31T13:59:02.027Z,98630.59
2023-03-31T14:01:34.843Z,98626.06
2023-03-31T14:04:13.362Z,98615.66
2023-03-31T14:06:52.989Z,98617.31
2023-03-31T14:09:24.141Z,98616.84
2023-03-31T14:11:51.184Z,98599.06
2023-03-31T14:14:19.191Z,98599.06
2023-03-31T14:16:48.650Z,98591.41
2023-03-31T14:19:48.158Z,98588.31
2023-03-31T14:22:40.594Z,98592.78
2023-03-31T14:25:17.371Z,98588.06
2023-03-31T14:28:13.916Z,98581.59
2023-03-31T14:30:54.815Z,98589.25
2023-03-31T14:33:42.149Z,98592.56
2023-03-31T14:36:11.823Z,98585.69
2023-03-31T14:38:38.899Z,98583.56
2023-03-31T14:41:05.925Z,98582.53
2023-03-31T14:43:41.114Z,98583.06
2023-03-31T14:46:09.861Z,98588.72
2023-03-31T14:48:47.256Z,98586.00
2023-03-31T14:51:25.041Z,98588.75
2023-03-31T14:54:02.042Z,98589.53
2023-03-31T14:56:40.577Z,98590.59
2023-03-31T14:59:08.460Z,98582.19
2023-03-31T15:01:38.090Z,98582.44
2023-03-31T15:04:14.183Z,98570.66
2023-03-31T15:06:51.673Z,98568.97
2023-03-31T15:09:24.137Z,98559.16
2023-03-31T15:12:15.272Z,98566.56
2023-03-31T15:14:47.228Z,98563.41
2023-03-31T15:17:27.151Z,98573.91
2023-03-31T15:20:04.542Z,98576.84
2023-03-31T15:22:31.600Z,98584.41
2023-03-31T15:24:58.798Z,98587.00
2023-03-31T15:27:38.083Z,98579.19
2023-03-31T15:30:15.549Z,98582.16
2023-03-31T15:32:43.183Z,98577.72
2023-03-31T15:35:25.858Z,98590.13
2023-03-31T15:37:55.198Z,98588.28
2023-03-31T15:40:39.714Z,98580.00
2023-03-31T15:43:32.360Z,98576.09
2023-03-31T15:46:02.650Z,98577.16
2023-03-31T15:48:35.834Z,98584.44
2023-03-31T15:51:07.133Z,98591.78
2023-03-31T15:53:43.863Z,98609.94
2023-03-31T15:56:34.867Z,98628.28
2023-03-31T15:59:04.864Z,98614.75
2023-03-31T16:01:34.964Z,98622.63
2023-03-31T16:04:06.665Z,98625.81
2023-03-31T16:06:41.986Z,98643.16
2023-03-31T16:09:13.500Z,98619.13
2023-03-31T16:12:08.884Z,98628.16
2023-03-31T16:14:39.017Z,98633.44
2023-03-31T16:17:11.984Z,98629.53
2023-03-31T16:19:44.028Z,98640.81
2023-03-31T16:22:21.447Z,98660.19
2023-03-31T16:24:48.941Z,98657.66
2023-03-31T16:27:16.212Z,98650.63
2023-03-31T16:29:43.193Z,98657.19
2023-03-31T16:32:19.373Z,98655.13
2023-03-31T16:35:00.701Z,98655.63
2023-03-31T16:37:28.220Z,98640.50
2023-03-31T16:39:55.792Z,98616.47
2023-03-31T16:42:23.107Z,98637.31
2023-03-31T16:45:00.010Z,98623.72
2023-03-31T16:47:37.006Z,98622.16
2023-03-31T16:50:10.103Z,98605.72
2023-03-31T16:52:37.024Z,98611.19
2023-03-31T16:55:04.122Z,98586.38
2023-03-31T16:57:32.265Z,98600.22
2023-03-31T16:59:59.718Z,98586.34
2023-03-31T17:02:26.818Z,98565.75
2023-03-31T17:04:56.581Z,98579.84
2023-03-31T17:07:27.178Z,98594.47
2023-03-31T17:09:53.938Z,98574.88
2023-03-31T17:12:20.902Z,98593.16
2023-03-31T17:14:47.719Z,98579.81
2023-03-31T17:17:17.740Z,98607.19
2023-03-31T17:19:44.798Z,98589.97
2023-03-31T17:22:12.103Z,98592.34
2023-03-31T17:24:38.890Z,98592.59
2023-03-31T17:27:05.770Z,98601.19
2023-03-31T17:29:32.502Z,98606.94
2023-03-31T17:31:59.329Z,98601.75
2023-03-31T17:34:26.198Z,98612.41
2023-03-31T17:36:55.601Z,98610.06
2023-03-31T17:39:23.744Z,98598.59
2023-03-31T17:41:50.776Z,98599.63
2023-03-31T17:44:17.539Z,98598.34
2023-03-31T17:46:44.452Z,98622.84
2023-03-31T17:49:11.247Z,98620.25
2023-03-31T17:51:38.270Z,98623.63
2023-03-31T17:54:05.103Z,98618.41
2023-03-31T17:56:31.922Z,98619.44
2023-03-31T17:58:58.658Z,98624.66
2023-03-31T18:01:25.550Z,98624.09
2023-03-31T18:03:55.636Z,98633.47
2023-03-31T18:06:22.372Z,98632.44
2023-03-31T18:08:49.243Z,98626.66
2023-03-31T18:11:16.238Z,98628.19
2023-03-31T18:13:43.042Z,98635.50
2023-03-31T18:16:11.998Z,98640.13
2023-03-31T18:18:39.581Z,98641.16
2023-03-31T18:21:08.356Z,98639.56
2023-03-31T18:23:36.347Z,98641.63
2023-03-31T18:26:11.280Z,98650.97
2023-03-31T18:28:38.202Z,98649.13
2023-03-31T18:31:06.581Z,98654.56
2023-03-31T18:33:34.112Z,98641.22
2023-03-31T18:36:01.887Z,98655.03
2023-03-31T18:38:29.055Z,98652.41
2023-03-31T18:40:56.316Z,98657.13
2023-03-31T18:43:25.129Z,98646.72
2023-03-31T18:45:53.803Z,98657.13
2023-03-31T18:48:24.104Z,98651.94
2023-03-31T18:50:52.769Z,98648.00
2023-03-31T18:53:20.935Z,98652.13
2023-03-31T18:55:52.048Z,98657.56
2023-03-31T18:58:19.207Z,98665.91
2023-03-31T19:00:46.153Z,98664.03
2023-03-31T19:03:13.752Z,98672.41
2023-03-31T19:05:41.073Z,98695.06
2023-03-31T19:08:08.257Z,98688.81
2023-03-31T19:10:35.030Z,98701.00
2023-03-31T19:13:01.871Z,98699.16
2023-03-31T19:15:28.929Z,98685.81
2023-03-31T19:17:56.529Z,98692.25
2023-03-31T19:20:23.432Z,98697.75
2023-03-31T19:22:51.218Z,98695.34
2023-03-31T19:25:20.189Z,98692.19
2023-03-31T19:27:47.044Z,98695.81
2023-03-31T19:30:20.396Z,98680.09
2023-03-31T19:32:49.002Z,98682.28
2023-03-31T19:35:20.062Z,98679.88
2023-03-31T19:37:48.779Z,98669.94
2023-03-31T19:40:15.874Z,98674.06
2023-03-31T19:42:44.410Z,98665.19
2023-03-31T19:45:11.636Z,98654.41
2023-03-31T19:47:38.832Z,98667.06
2023-03-31T19:50:08.472Z,98660.72
2023-03-31T19:52:35.439Z,98659.38
2023-03-31T19:55:04.236Z,98669.00
2023-03-31T19:57:31.187Z,98662.72
2023-03-31T19:59:58.018Z,98658.94
2023-03-31T20:02:26.718Z,98662.50
2023-03-31T20:04:54.798Z,98664.47
2023-03-31T20:07:21.731Z,98662.34
2023-03-31T20:09:48.606Z,98656.63
2023-03-31T20:12:15.762Z,98656.13
2023-03-31T20:14:42.597Z,98650.63
2023-03-31T20:17:10.188Z,98655.84
2023-03-31T20:19:36.943Z,98661.28
2023-03-31T20:22:03.854Z,98666.16
2023-03-31T20:24:30.692Z,98662.44
2023-03-31T20:26:57.495Z,98674.44
2023-03-31T20:29:25.174Z,98668.91
2023-03-31T20:31:52.190Z,98667.03
2023-03-31T20:34:22.696Z,98666.19
2023-03-31T20:36:51.615Z,98667.19
2023-03-31T20:39:19.968Z,98662.47
2023-03-31T20:41:47.476Z,98656.97
2023-03-31T20:44:16.028Z,98665.00
2023-03-31T20:46:44.311Z,98661.31
2023-03-31T20:49:11.496Z,98663.81
2023-03-31T20:51:39.015Z,98666.91
2023-03-31T20:54:07.126Z,98673.81
2023-03-31T20:56:39.539Z,98672.41
2023-03-31T20:59:11.116Z,98674.78
2023-03-31T21:01:39.403Z,98667.41
2023-03-31T21:04:08.161Z,98662.94
2023-03-31T21:06:43.760Z,98663.25
2023-03-31T21:09:12.359Z,98654.91
2023-03-31T21:11:42.545Z,98658.97
2023-03-31T21:14:15.972Z,98650.56
2023-03-31T21:16:42.818Z,98646.94
2023-03-31T21:19:10.210Z,98646.34
2023-03-31T21:21:37.928Z,98645.38
2023-03-31T21:24:05.022Z,98646.34
2023-03-31T21:26:31.951Z,98653.59
2023-03-31T21:28:58.795Z,98640.63
2023-03-31T21:31:26.340Z,98635.97
2023-03-31T21:33:57.900Z,98631.13
2023-03-31T21:36:26.791Z,98620.59
2023-03-31T21:38:54.826Z,98617.44
2023-03-31T21:41:24.631Z,98612.72
2023-03-31T21:43:52.176Z,98606.75
2023-03-31T21:46:27.658Z,98605.72
2023-03-31T21:48:55.216Z,98615.88
2023-03-31T21:51:22.722Z,98611.22
2023-03-31T21:53:51.438Z,98601.84
2023-03-31T21:56:18.231Z,98599.25
2023-03-31T21:58:45.243Z,98600.84
2023-03-31T22:01:12.251Z,98599.03
2023-03-31T22:03:42.383Z,98599.53
2023-03-31T22:06:10.021Z,98603.38
2023-03-31T22:08:38.449Z,98604.38
2023-03-31T22:11:07.226Z,98605.97
2023-03-31T22:13:34.208Z,98605.31
2023-03-31T22:16:02.161Z,98601.75
2023-03-31T22:18:30.655Z,98598.72
2023-03-31T22:20:58.076Z,98600.16
2023-03-31T22:23:26.100Z,98599.38
2023-03-31T22:25:52.898Z,98590.44
2023-03-31T22:28:19.681Z,98596.28
2023-03-31T22:30:46.554Z,98598.69
2023-03-31T22:33:13.598Z,98602.00
2023-03-31T22:35:40.438Z,98597.72
2023-03-31T22:38:08.646Z,98598.50
2023-03-31T22:40:36.345Z,98588.81
2023-03-31T22:43:03.285Z,98588.72
2023-03-31T22:45:31.433Z,98592.53
2023-03-31T22:47:59.177Z,98585.66
2023-03-31T22:50:25.928Z,98593.66
2023-03-31T22:52:52.937Z,98590.22
2023-03-31T22:55:19.850Z,98590.63
2023-03-31T22:57:49.579Z,98603.81
2023-03-31T23:00:17.122Z,98593.94
2023-03-31T23:02:44.049Z,98595.16
2023-03-31T23:05:11.414Z,98596.53
2023-03-31T23:07:38.718Z,98596.28
2023-03-31T23:10:06.447Z,98591.41
2023-03-31T23:12:33.327Z,98589.97
2023-03-31T23:15:00.319Z,98586.69
2023-03-31T23:17:27.236Z,98583.66
2023-03-31T23:19:54.026Z,98571.38
2023-03-31T23:22:21.764Z,98584.88
2023-03-31T23:24:49.693Z,98584.53
2023-03-31T23:27:16.496Z,98588.50
2023-03-31T23:29:43.723Z,98584.31
2023-03-31T23:32:10.733Z,98584.00
2023-03-31T23:34:41.770Z,98583.09
2023-03-31T23:37:12.227Z,98587.06
2023-03-31T23:39:39.226Z,98595.50
2023-03-31T23:42:08.594Z,98593.38
2023-03-31T23:44:37.867Z,98577.28
2023-03-31T23:47:05.952Z,98583.13
2023-03-31T23:49:32.792Z,98577.94
2023-03-31T23:51:59.638Z,98591.09
2023-03-31T23:54:27.338Z,98579.66
2023-03-31T23:56:54.401Z,98586.81
2023-03-31T23:59:21.418Z,98596.38
